createdAt,value
2023-02-06T00:00:16.497Z,46
2023-02-06T00:05:14.407Z,46
2023-02-06T00:10:18.251Z,46
2023-02-06T00:15:20.222Z,46
2023-02-06T00:20:14.110Z,47
2023-02-06T00:25:23.991Z,46
2023-02-06T00:30:15.960Z,47
2023-02-06T00:35:19.862Z,46
2023-02-06T00:40:23.646Z,45
2023-02-06T00:45:14.486Z,46
2023-02-06T00:50:16.374Z,44
2023-02-06T00:55:18.222Z,45
2023-02-06T01:00:20.132Z,46
2023-02-06T01:05:22.003Z,46
2023-02-06T01:10:19.758Z,46
2023-02-06T01:15:18.672Z,46
2023-02-06T01:20:16.670Z,45
2023-02-06T01:25:14.418Z,46
2023-02-06T01:30:14.418Z,46
2023-02-06T01:35:18.387Z,46
2023-02-06T01:40:14.204Z,44
2023-02-06T01:45:18.031Z,46
2023-02-06T01:50:21.762Z,44
2023-02-06T01:55:14.599Z,45
2023-02-06T02:00:20.504Z,44
2023-02-06T02:05:16.327Z,45
2023-02-06T02:10:14.084Z,45
2023-02-06T02:15:21.972Z,45
2023-02-06T02:20:13.696Z,45
2023-02-06T02:25:14.635Z,44
2023-02-06T02:30:16.523Z,45
2023-02-06T02:35:22.271Z,45
2023-02-06T02:40:16.101Z,45
2023-02-06T02:45:13.971Z,45
2023-02-06T02:50:18.083Z,45
2023-02-06T02:55:19.955Z,43
2023-02-06T03:00:23.990Z,45
2023-02-06T03:05:15.773Z,45
2023-02-06T03:10:18.690Z,44
2023-02-06T03:15:14.522Z,44
2023-02-06T03:20:22.478Z,44
2023-02-06T03:25:26.258Z,43
2023-02-06T03:30:20.203Z,45
2023-02-06T03:35:16.085Z,43
2023-02-06T03:40:17.935Z,43
2023-02-06T03:45:13.799Z,45
2023-02-06T03:50:14.654Z,44
2023-02-06T03:55:22.699Z,44
2023-02-06T04:00:24.613Z,44
2023-02-06T04:05:14.371Z,45
2023-02-06T04:10:26.578Z,44
2023-02-06T04:15:14.616Z,44
2023-02-06T04:20:16.445Z,44
2023-02-06T04:25:14.533Z,44
2023-02-06T04:30:16.389Z,44
2023-02-06T04:35:20.514Z,43
2023-02-06T04:40:18.324Z,44
2023-02-06T04:45:16.456Z,44
2023-02-06T04:50:14.276Z,44
2023-02-06T04:55:16.186Z,44
2023-02-06T05:00:20.284Z,44
2023-02-06T05:05:16.025Z,44
2023-02-06T05:10:15.952Z,46
2023-02-06T05:15:18.248Z,46
2023-02-06T05:20:18.239Z,47
2023-02-06T05:25:18.364Z,48
2023-02-06T05:30:18.227Z,49
2023-02-06T05:35:20.198Z,50
2023-02-06T05:40:26.003Z,51
2023-02-06T05:45:15.872Z,50
2023-02-06T05:50:17.907Z,49
2023-02-06T05:55:13.986Z,49
2023-02-06T06:00:15.834Z,48
2023-02-06T06:05:16.262Z,48
2023-02-06T06:10:20.062Z,48
2023-02-06T06:15:15.835Z,48
2023-02-06T06:20:15.629Z,48
2023-02-06T06:25:14.407Z,50
2023-02-06T06:30:14.495Z,50
2023-02-06T06:35:22.383Z,50
2023-02-06T06:40:18.328Z,48
2023-02-06T06:45:20.354Z,50
2023-02-06T06:50:24.407Z,49
2023-02-06T06:55:20.256Z,49
2023-02-06T07:00:14.225Z,49
2023-02-06T07:05:15.888Z,49
2023-02-06T07:10:23.683Z,48
2023-02-06T07:15:20.805Z,47
2023-02-06T07:20:17.651Z,47
2023-02-06T07:25:16.474Z,48
2023-02-06T07:30:25.964Z,48
2023-02-06T07:35:25.761Z,48
2023-02-06T07:40:14.393Z,48
2023-02-06T07:45:18.237Z,48
2023-02-06T07:50:26.148Z,47
2023-02-06T07:55:15.988Z,48
2023-02-06T08:00:13.832Z,48
2023-02-06T08:05:25.614Z,48
2023-02-06T08:10:16.397Z,47
2023-02-06T08:15:22.440Z,47
2023-02-06T08:20:14.378Z,46
2023-02-06T08:25:20.199Z,47
2023-02-06T08:30:14.069Z,48
2023-02-06T08:35:18.036Z,47
2023-02-06T08:40:19.843Z,47
2023-02-06T08:45:23.703Z,47
2023-02-06T08:50:19.474Z,47
2023-02-06T08:55:14.171Z,46
2023-02-06T09:00:13.970Z,46
2023-02-06T09:05:14.235Z,47
2023-02-06T09:10:28.170Z,46
2023-02-06T09:15:18.249Z,47
2023-02-06T09:20:20.326Z,47
2023-02-06T09:25:16.126Z,47
2023-02-06T09:30:20.057Z,47
2023-02-06T09:35:13.885Z,46
2023-02-06T09:40:13.676Z,47
2023-02-06T09:45:14.628Z,47
2023-02-06T09:50:26.536Z,47
2023-02-06T09:55:16.423Z,46
2023-02-06T10:00:18.381Z,46
2023-02-06T10:05:13.772Z,45
2023-02-06T10:10:14.581Z,46
2023-02-06T10:15:16.525Z,46
2023-02-06T10:20:24.624Z,46
2023-02-06T10:25:18.437Z,45
2023-02-06T10:30:22.264Z,46
2023-02-06T10:35:18.138Z,45
2023-02-06T10:40:17.945Z,45
2023-02-06T10:45:36.648Z,46
2023-02-06T10:50:14.010Z,44
2023-02-06T10:55:17.874Z,46
2023-02-06T11:00:17.935Z,46
2023-02-06T11:05:16.860Z,46
2023-02-06T11:10:15.956Z,46
2023-02-06T11:15:26.754Z,46
2023-02-06T11:20:16.225Z,46
2023-02-06T11:25:17.906Z,46
2023-02-06T11:30:17.974Z,46
2023-02-06T11:35:20.852Z,46
2023-02-06T11:40:15.675Z,45
2023-02-06T11:45:20.557Z,46
2023-02-06T11:50:14.831Z,46
2023-02-06T11:55:17.755Z,46
2023-02-06T12:00:21.023Z,46
2023-02-06T12:05:22.558Z,46
2023-02-06T12:10:18.401Z,45
2023-02-06T12:16:03.744Z,44
2023-02-06T12:20:17.757Z,45
2023-02-06T12:25:18.536Z,44
2023-02-06T12:30:20.590Z,45
2023-02-06T12:35:18.383Z,46
2023-02-06T12:40:16.169Z,46
2023-02-06T12:45:18.128Z,45
2023-02-06T12:50:13.934Z,46
2023-02-06T12:55:21.848Z,46
2023-02-06T13:00:18.058Z,47
2023-02-06T13:05:17.758Z,46
2023-02-06T13:10:18.597Z,46
2023-02-06T13:15:16.409Z,46
2023-02-06T13:20:18.625Z,47
2023-02-06T13:25:14.502Z,47
2023-02-06T13:30:20.487Z,46
2023-02-06T13:35:16.297Z,46
2023-02-06T13:40:18.093Z,47
2023-02-06T13:45:19.919Z,46
2023-02-06T13:50:27.797Z,46
2023-02-06T13:55:16.713Z,46
2023-02-06T14:00:22.645Z,46
2023-02-06T14:05:16.030Z,46
2023-02-06T14:10:13.981Z,45
2023-02-06T14:15:13.825Z,46
2023-02-06T14:20:13.761Z,46
2023-02-06T14:25:18.726Z,46
2023-02-06T14:30:16.697Z,45
2023-02-06T14:35:13.652Z,45
2023-02-06T14:40:19.098Z,45
2023-02-06T14:45:21.865Z,46
2023-02-06T14:50:17.653Z,45
2023-02-06T14:55:16.667Z,45
2023-02-06T15:00:13.884Z,44
2023-02-06T15:05:20.470Z,44
2023-02-06T15:10:22.592Z,45
2023-02-06T15:15:16.727Z,44
2023-02-06T15:20:18.554Z,45
2023-02-06T15:25:18.624Z,45
2023-02-06T15:30:17.110Z,45
2023-02-06T15:35:17.870Z,45
2023-02-06T15:40:25.814Z,44
2023-02-06T15:45:15.742Z,45
2023-02-06T15:50:16.849Z,45
2023-02-06T15:55:15.657Z,45
2023-02-06T16:00:18.892Z,44
2023-02-06T16:05:14.376Z,45
2023-02-06T16:10:20.548Z,44
2023-02-06T16:15:25.049Z,45
2023-02-06T16:20:20.790Z,44
2023-02-06T16:25:19.092Z,45
2023-02-06T16:30:18.101Z,45
2023-02-06T16:35:15.827Z,45
2023-02-06T16:40:15.748Z,45
2023-02-06T16:45:28.649Z,45
2023-02-06T16:50:16.447Z,45
2023-02-06T16:55:16.346Z,45
2023-02-06T17:00:16.298Z,45
2023-02-06T17:05:27.374Z,44
2023-02-06T17:10:14.244Z,45
2023-02-06T17:15:14.176Z,45
2023-02-06T17:20:17.991Z,45
2023-02-06T17:25:13.795Z,44
2023-02-06T17:30:18.748Z,45
2023-02-06T17:35:14.579Z,44
2023-02-06T17:40:14.846Z,45
2023-02-06T17:45:13.699Z,44
2023-02-06T17:50:18.768Z,44
2023-02-06T17:55:26.668Z,45
2023-02-06T18:00:14.931Z,45
2023-02-06T18:05:13.996Z,45
2023-02-06T18:10:15.796Z,44
2023-02-06T18:15:16.737Z,45
2023-02-06T18:20:22.737Z,44
2023-02-06T18:25:16.642Z,46
2023-02-06T18:30:20.471Z,45
2023-02-06T18:35:18.457Z,46
2023-02-06T18:40:14.305Z,46
2023-02-06T18:45:20.032Z,45
2023-02-06T18:50:20.389Z,46
2023-02-06T18:55:22.261Z,46
2023-02-06T19:00:16.169Z,45
2023-02-06T19:05:15.634Z,45
2023-02-06T19:10:16.438Z,45
2023-02-06T19:15:14.403Z,45
2023-02-06T19:20:18.280Z,44
2023-02-06T19:25:16.084Z,44
2023-02-06T19:30:18.009Z,45
2023-02-06T19:35:13.780Z,45
2023-02-06T19:40:20.748Z,46
2023-02-06T19:45:14.547Z,46
2023-02-06T19:50:14.611Z,46
2023-02-06T19:55:16.470Z,46
2023-02-06T20:00:20.426Z,47
2023-02-06T20:05:24.816Z,46
2023-02-06T20:10:20.599Z,45
2023-02-06T20:15:14.424Z,46
2023-02-06T20:20:14.287Z,46
2023-02-06T20:25:14.011Z,46
2023-02-06T20:30:19.772Z,46
2023-02-06T20:35:16.338Z,46
2023-02-06T20:40:18.364Z,46
2023-02-06T20:45:16.253Z,45
2023-02-06T20:50:14.069Z,45
2023-02-06T20:55:17.814Z,44
2023-02-06T21:00:14.643Z,45
2023-02-06T21:05:24.620Z,44
2023-02-06T21:10:18.591Z,45
2023-02-06T21:15:16.606Z,45
2023-02-06T21:20:22.452Z,44
2023-02-06T21:25:16.285Z,44
2023-02-06T21:30:18.498Z,44
2023-02-06T21:35:18.470Z,45
2023-02-06T21:40:28.339Z,43
2023-02-06T21:45:20.402Z,44
2023-02-06T21:50:16.133Z,43
2023-02-06T21:55:15.966Z,43
2023-02-06T22:00:15.805Z,44
2023-02-06T22:05:13.793Z,43
2023-02-06T22:10:20.561Z,43
2023-02-06T22:15:18.488Z,44
2023-02-06T22:20:18.533Z,43
2023-02-06T22:25:24.295Z,44
2023-02-06T22:30:16.219Z,44
2023-02-06T22:35:14.064Z,43
2023-02-06T22:40:18.186Z,44
2023-02-06T22:45:14.121Z,44
2023-02-06T22:50:19.898Z,44
2023-02-06T22:55:17.622Z,44
2023-02-06T23:00:20.660Z,44
2023-02-06T23:05:16.626Z,44
2023-02-06T23:10:20.463Z,44
2023-02-06T23:15:16.372Z,44
2023-02-06T23:20:20.286Z,44
2023-02-06T23:25:18.087Z,44
2023-02-06T23:30:17.898Z,44
2023-02-06T23:35:15.693Z,44
2023-02-06T23:40:18.695Z,44
2023-02-06T23:45:22.610Z,44
2023-02-06T23:50:16.272Z,44
2023-02-06T23:55:16.111Z,44
